Fairfax, IA (52228)

11:33 PM CDT on September 01, 2015 (GMT -0500)
Rockhurst Dr SW - Stoney Point | | Change Station
CLOSE
Current Station
Personal Weather Station
Location: Cedar Rapids, IA
Elevation: 830 ft
Nearby Weather Stations

Elev 830 ft 41.97 °N, 91.76 °W | Updated 4 seconds ago

Clear
Clear
74.5 °F
Feels Like 73 °F
N
0.0
Wind Variable Wind from SSW
Gusts 0.0 mph

Today
High -- | Low -- °F
--% Chance of Precip.
Yesterday
High -- | Low -- °F
Precip. -- in
6:32 AM 7:40 PM
Waning Gibbous, 83% visible
Pressure 29.99 in
Visibility 8.0 miles
Clouds Clear
Heat Index 73 °F
Dew Point 71 °F
Humidity 89%
Rainfall 0.00 in
Snow Depth Not available.
UV 0.0 out of 12
Pollen 10.70 out of 12
Air Quality Not available.
Flu Activity Not available.
METAR KCID 020352Z 19004KT 8SM CLR 23/22 A3001 RMK AO2 SLP155 T02280217
Pressure 29.99 in
Visibility 8.0 miles
Clouds Clear
Heat Index 73 °F
Dew Point 71 °F
Humidity 89%
Rainfall 0.00 in
Snow Depth Not available.
UV 0.0 out of 12
Pollen 10.70 out of 12
Air Quality Not available.
Flu Activity Not available.
METAR KCID 020352Z 19004KT 8SM CLR 23/22 A3001 RMK AO2 SLP155 T02280217

10-Day Weather Forecast

×

Almanac

Astronomy

Sep. 01, 2015 Rise Set
Actual Time
Civil Twilight
Nautical Twilight
Astronomical Twilight
Moon
Length of Visible Light
Length of Day
Tomorrow will be .
, % of the Moon is Illuminated

Today's Extremes

State Highs State Lows

Community

WunderPhotos

Upload Photos

1,851,695 photos uploaded!

WunderBlogs® & News

Nearby

Air Quality

  Air Quality AQ Index Pollutant
Not available.

Snow Depth

Station Depth Elevation

Earthquake Activity

City Distance Mag. Time & Date
Minimum magnitude displayed is 2.5.

Coastal Water Temperatures

Place Temperature

Stations

Nearby Weather Stations

Station Location Temp. Windchill Dew Point Humidity Wind Precip. Elev Updated Type